sensor_id;sensor_type;location;lat;lon;timestamp;pressure;altitude;pressure_sealevel;temperature;humidity
4981;BME280;2507;50.392;7.482;2024-02-23T00:01:31;98313.94;;;9.53;55.96
4981;BME280;2507;50.392;7.482;2024-02-23T00:03:56;98325.56;;;9.51;56.08
4981;BME280;2507;50.392;7.482;2024-02-23T00:06:22;98331.78;;;9.50;56.60
4981;BME280;2507;50.392;7.482;2024-02-23T00:08:53;98337.84;;;9.50;56.58
4981;BME280;2507;50.392;7.482;2024-02-23T00:11:20;98343.25;;;9.49;56.72
4981;BME280;2507;50.392;7.482;2024-02-23T00:13:45;98356.66;;;9.54;56.45
4981;BME280;2507;50.392;7.482;2024-02-23T00:16:10;98369.28;;;9.58;56.43
4981;BME280;2507;50.392;7.482;2024-02-23T00:18:36;98380.00;;;9.39;56.13
4981;BME280;2507;50.392;7.482;2024-02-23T00:21:01;98378.63;;;9.27;55.96
4981;BME280;2507;50.392;7.482;2024-02-23T00:23:27;98395.09;;;9.19;56.57
4981;BME280;2507;50.392;7.482;2024-02-23T00:25:53;98401.13;;;9.20;55.95
4981;BME280;2507;50.392;7.482;2024-02-23T00:28:19;98396.63;;;9.30;55.06
4981;BME280;2507;50.392;7.482;2024-02-23T00:30:44;98402.63;;;9.22;53.64
4981;BME280;2507;50.392;7.482;2024-02-23T00:33:09;98417.22;;;9.25;52.94
4981;BME280;2507;50.392;7.482;2024-02-23T00:35:35;98431.00;;;9.09;53.11
4981;BME280;2507;50.392;7.482;2024-02-23T00:38:00;98431.47;;;9.05;53.23
4981;BME280;2507;50.392;7.482;2024-02-23T00:40:26;98438.47;;;9.04;52.85
4981;BME280;2507;50.392;7.482;2024-02-23T00:42:51;98444.25;;;8.90;53.25
4981;BME280;2507;50.392;7.482;2024-02-23T00:45:17;98448.75;;;8.80;53.61
4981;BME280;2507;50.392;7.482;2024-02-23T00:47:43;98474.72;;;8.82;53.44
4981;BME280;2507;50.392;7.482;2024-02-23T00:50:08;98484.41;;;8.81;54.10
4981;BME280;2507;50.392;7.482;2024-02-23T00:52:34;98504.63;;;8.79;54.80
4981;BME280;2507;50.392;7.482;2024-02-23T00:54:59;98512.09;;;8.92;55.64
4981;BME280;2507;50.392;7.482;2024-02-23T00:57:25;98513.81;;;9.01;55.81
4981;BME280;2507;50.392;7.482;2024-02-23T00:59:55;98520.84;;;9.00;56.26
4981;BME280;2507;50.392;7.482;2024-02-23T01:02:20;98533.63;;;9.03;56.34
4981;BME280;2507;50.392;7.482;2024-02-23T01:04:46;98540.81;;;9.01;56.53
4981;BME280;2507;50.392;7.482;2024-02-23T01:07:11;98530.31;;;8.84;57.56
4981;BME280;2507;50.392;7.482;2024-02-23T01:09:36;98537.28;;;8.75;57.08
4981;BME280;2507;50.392;7.482;2024-02-23T01:12:02;98545.31;;;8.64;57.14
4981;BME280;2507;50.392;7.482;2024-02-23T01:14:27;98554.16;;;8.63;57.11
4981;BME280;2507;50.392;7.482;2024-02-23T01:16:52;98551.06;;;8.50;56.31
4981;BME280;2507;50.392;7.482;2024-02-23T01:19:17;98563.41;;;8.31;56.48
4981;BME280;2507;50.392;7.482;2024-02-23T01:21:43;98579.09;;;8.21;56.32
4981;BME280;2507;50.392;7.482;2024-02-23T01:24:09;98583.22;;;8.23;55.74
4981;BME280;2507;50.392;7.482;2024-02-23T01:26:34;98584.59;;;8.18;55.90
4981;BME280;2507;50.392;7.482;2024-02-23T01:28:59;98579.56;;;8.07;56.61
4981;BME280;2507;50.392;7.482;2024-02-23T01:31:25;98590.94;;;8.06;56.60
4981;BME280;2507;50.392;7.482;2024-02-23T01:33:50;98595.41;;;7.96;57.18
4981;BME280;2507;50.392;7.482;2024-02-23T01:36:16;98590.72;;;7.99;57.77
4981;BME280;2507;50.392;7.482;2024-02-23T01:38:43;98592.56;;;8.16;57.04
4981;BME280;2507;50.392;7.482;2024-02-23T01:41:08;98585.94;;;8.22;57.09
4981;BME280;2507;50.392;7.482;2024-02-23T01:43:33;98590.63;;;8.28;57.20
4981;BME280;2507;50.392;7.482;2024-02-23T01:45:59;98595.00;;;8.37;57.48
4981;BME280;2507;50.392;7.482;2024-02-23T01:48:25;98592.22;;;8.39;57.79
4981;BME280;2507;50.392;7.482;2024-02-23T01:50:51;98597.09;;;8.24;58.21
4981;BME280;2507;50.392;7.482;2024-02-23T01:53:17;98588.31;;;8.25;58.89
4981;BME280;2507;50.392;7.482;2024-02-23T01:55:45;98592.56;;;8.26;58.72
4981;BME280;2507;50.392;7.482;2024-02-23T01:58:10;98591.22;;;8.49;58.36
4981;BME280;2507;50.392;7.482;2024-02-23T02:00:36;98600.78;;;8.58;58.07
4981;BME280;2507;50.392;7.482;2024-02-23T02:03:02;98605.06;;;8.59;58.37
4981;BME280;2507;50.392;7.482;2024-02-23T02:05:28;98598.25;;;8.49;58.62
4981;BME280;2507;50.392;7.482;2024-02-23T02:07:55;98601.59;;;8.41;58.87
4981;BME280;2507;50.392;7.482;2024-02-23T02:10:24;98604.16;;;8.51;58.75
4981;BME280;2507;50.392;7.482;2024-02-23T02:12:50;98604.97;;;8.51;58.96
4981;BME280;2507;50.392;7.482;2024-02-23T02:15:15;98608.63;;;8.58;58.72
4981;BME280;2507;50.392;7.482;2024-02-23T02:17:40;98602.22;;;8.53;58.69
4981;BME280;2507;50.392;7.482;2024-02-23T02:20:07;98601.56;;;8.51;58.63
4981;BME280;2507;50.392;7.482;2024-02-23T02:22:35;98600.94;;;8.57;58.13
4981;BME280;2507;50.392;7.482;2024-02-23T02:25:01;98608.91;;;8.65;58.21
4981;BME280;2507;50.392;7.482;2024-02-23T02:27:26;98600.94;;;8.57;57.99
4981;BME280;2507;50.392;7.482;2024-02-23T02:29:51;98608.09;;;8.55;57.95
4981;BME280;2507;50.392;7.482;2024-02-23T02:32:17;98623.41;;;8.50;57.80
4981;BME280;2507;50.392;7.482;2024-02-23T02:34:42;98618.19;;;8.50;58.00
4981;BME280;2507;50.392;7.482;2024-02-23T02:37:07;98613.28;;;8.37;58.24
4981;BME280;2507;50.392;7.482;2024-02-23T02:39:33;98620.75;;;8.32;58.04
4981;BME280;2507;50.392;7.482;2024-02-23T02:41:58;98631.34;;;8.31;57.91
4981;BME280;2507;50.392;7.482;2024-02-23T02:44:23;98624.56;;;8.38;57.41
4981;BME280;2507;50.392;7.482;2024-02-23T02:46:49;98624.72;;;8.36;57.41
4981;BME280;2507;50.392;7.482;2024-02-23T02:49:14;98627.50;;;8.25;57.50
4981;BME280;2507;50.392;7.482;2024-02-23T02:51:39;98633.41;;;8.27;57.29
4981;BME280;2507;50.392;7.482;2024-02-23T02:54:05;98639.56;;;8.16;57.92
4981;BME280;2507;50.392;7.482;2024-02-23T02:56:31;98644.41;;;8.21;57.46
4981;BME280;2507;50.392;7.482;2024-02-23T02:58:56;98647.41;;;8.16;57.70
4981;BME280;2507;50.392;7.482;2024-02-23T03:01:21;98655.41;;;8.05;58.62
4981;BME280;2507;50.392;7.482;2024-02-23T03:03:46;98662.47;;;7.95;59.30
4981;BME280;2507;50.392;7.482;2024-02-23T03:06:12;98652.31;;;7.92;59.62
4981;BME280;2507;50.392;7.482;2024-02-23T03:08:37;98661.09;;;7.82;60.06
4981;BME280;2507;50.392;7.482;2024-02-23T03:11:02;98657.53;;;7.92;59.88
4981;BME280;2507;50.392;7.482;2024-02-23T03:13:28;98637.72;;;7.90;59.89
4981;BME280;2507;50.392;7.482;2024-02-23T03:15:53;98645.94;;;7.95;59.95
4981;BME280;2507;50.392;7.482;2024-02-23T03:18:18;98650.91;;;7.98;59.87
4981;BME280;2507;50.392;7.482;2024-02-23T03:20:44;98640.84;;;8.12;59.80
4981;BME280;2507;50.392;7.482;2024-02-23T03:23:10;98647.84;;;8.12;59.51
4981;BME280;2507;50.392;7.482;2024-02-23T03:25:35;98637.88;;;7.88;59.84
4981;BME280;2507;50.392;7.482;2024-02-23T03:28:00;98647.63;;;7.77;60.31
4981;BME280;2507;50.392;7.482;2024-02-23T03:30:26;98652.59;;;7.70;60.32
4981;BME280;2507;50.392;7.482;2024-02-23T03:32:51;98649.31;;;7.78;60.57
4981;BME280;2507;50.392;7.482;2024-02-23T03:35:16;98655.06;;;7.72;60.78
4981;BME280;2507;50.392;7.482;2024-02-23T03:37:42;98660.44;;;7.80;59.40
4981;BME280;2507;50.392;7.482;2024-02-23T03:40:07;98662.19;;;7.60;60.13
4981;BME280;2507;50.392;7.482;2024-02-23T03:42:33;98659.19;;;7.65;59.35
4981;BME280;2507;50.392;7.482;2024-02-23T03:44:58;98669.22;;;7.79;58.86
4981;BME280;2507;50.392;7.482;2024-02-23T03:47:24;98659.75;;;7.78;58.95
4981;BME280;2507;50.392;7.482;2024-02-23T03:49:49;98671.81;;;7.88;58.20
4981;BME280;2507;50.392;7.482;2024-02-23T03:52:14;98674.28;;;7.90;57.42
4981;BME280;2507;50.392;7.482;2024-02-23T03:54:39;98676.19;;;7.88;57.08
4981;BME280;2507;50.392;7.482;2024-02-23T03:57:05;98672.22;;;7.84;57.29
4981;BME280;2507;50.392;7.482;2024-02-23T03:59:30;98675.13;;;7.90;56.99
4981;BME280;2507;50.392;7.482;2024-02-23T04:01:56;98667.97;;;7.64;57.10
4981;BME280;2507;50.392;7.482;2024-02-23T04:04:21;98665.09;;;7.57;57.16
4981;BME280;2507;50.392;7.482;2024-02-23T04:06:46;98654.81;;;7.65;57.32
4981;BME280;2507;50.392;7.482;2024-02-23T04:09:12;98650.66;;;7.53;57.02
4981;BME280;2507;50.392;7.482;2024-02-23T04:11:37;98648.75;;;7.55;57.21
4981;BME280;2507;50.392;7.482;2024-02-23T04:14:02;98652.72;;;7.40;56.96
4981;BME280;2507;50.392;7.482;2024-02-23T04:16:30;98653.56;;;7.21;57.72
4981;BME280;2507;50.392;7.482;2024-02-23T04:18:55;98646.53;;;7.22;57.78
4981;BME280;2507;50.392;7.482;2024-02-23T04:21:21;98646.94;;;7.17;58.15
4981;BME280;2507;50.392;7.482;2024-02-23T04:23:46;98648.31;;;7.12;58.40
4981;BME280;2507;50.392;7.482;2024-02-23T04:26:13;98646.81;;;7.00;58.78
4981;BME280;2507;50.392;7.482;2024-02-23T04:28:39;98644.47;;;7.06;59.09
4981;BME280;2507;50.392;7.482;2024-02-23T04:31:05;98643.81;;;7.23;58.69
4981;BME280;2507;50.392;7.482;2024-02-23T04:33:30;98642.28;;;7.11;59.16
4981;BME280;2507;50.392;7.482;2024-02-23T04:35:55;98648.00;;;7.05;58.99
4981;BME280;2507;50.392;7.482;2024-02-23T04:38:21;98649.25;;;7.11;59.61
4981;BME280;2507;50.392;7.482;2024-02-23T04:40:46;98651.47;;;7.06;59.62
4981;BME280;2507;50.392;7.482;2024-02-23T04:43:11;98666.59;;;7.21;59.38
4981;BME280;2507;50.392;7.482;2024-02-23T04:45:36;98661.09;;;7.24;59.34
4981;BME280;2507;50.392;7.482;2024-02-23T04:48:02;98664.13;;;7.30;58.73
4981;BME280;2507;50.392;7.482;2024-02-23T04:50:28;98659.72;;;7.30;58.83
4981;BME280;2507;50.392;7.482;2024-02-23T04:52:54;98648.63;;;7.38;58.87
4981;BME280;2507;50.392;7.482;2024-02-23T04:55:19;98661.94;;;7.44;59.01
4981;BME280;2507;50.392;7.482;2024-02-23T04:57:44;98651.75;;;7.60;57.95
4981;BME280;2507;50.392;7.482;2024-02-23T05:00:10;98644.34;;;7.46;58.53
4981;BME280;2507;50.392;7.482;2024-02-23T05:02:35;98647.25;;;7.43;58.95
4981;BME280;2507;50.392;7.482;2024-02-23T05:05:02;98648.75;;;7.36;59.17
4981;BME280;2507;50.392;7.482;2024-02-23T05:07:32;98656.44;;;7.38;58.99
4981;BME280;2507;50.392;7.482;2024-02-23T05:09:57;98658.63;;;7.42;59.05
4981;BME280;2507;50.392;7.482;2024-02-23T05:12:23;98655.88;;;7.44;59.35
4981;BME280;2507;50.392;7.482;2024-02-23T05:14:48;98656.16;;;7.41;59.09
4981;BME280;2507;50.392;7.482;2024-02-23T05:17:13;98653.41;;;7.42;59.34
4981;BME280;2507;50.392;7.482;2024-02-23T05:19:39;98664.00;;;7.41;59.20
4981;BME280;2507;50.392;7.482;2024-02-23T05:22:04;98654.41;;;7.51;59.43
4981;BME280;2507;50.392;7.482;2024-02-23T05:24:29;98659.34;;;7.54;59.34
4981;BME280;2507;50.392;7.482;2024-02-23T05:26:54;98659.19;;;7.65;59.10
4981;BME280;2507;50.392;7.482;2024-02-23T05:29:20;98655.75;;;7.64;58.95
4981;BME280;2507;50.392;7.482;2024-02-23T05:31:52;98657.94;;;7.88;58.65
4981;BME280;2507;50.392;7.482;2024-02-23T05:34:18;98650.91;;;7.98;58.02
4981;BME280;2507;50.392;7.482;2024-02-23T05:36:46;98653.66;;;7.96;58.03
4981;BME280;2507;50.392;7.482;2024-02-23T05:39:13;98645.41;;;7.82;58.16
4981;BME280;2507;50.392;7.482;2024-02-23T05:41:40;98645.72;;;7.69;58.47
4981;BME280;2507;50.392;7.482;2024-02-23T05:44:06;98655.91;;;7.63;58.95
4981;BME280;2507;50.392;7.482;2024-02-23T05:46:35;98646.69;;;7.49;59.45
4981;BME280;2507;50.392;7.482;2024-02-23T05:49:01;98647.50;;;7.50;59.44
4981;BME280;2507;50.392;7.482;2024-02-23T05:51:28;98642.97;;;7.52;59.16
4981;BME280;2507;50.392;7.482;2024-02-23T05:53:57;98636.53;;;7.56;59.07
4981;BME280;2507;50.392;7.482;2024-02-23T05:56:23;98639.97;;;7.47;59.43
4981;BME280;2507;50.392;7.482;2024-02-23T05:58:51;98649.59;;;7.56;59.24
4981;BME280;2507;50.392;7.482;2024-02-23T06:01:18;98644.66;;;7.53;59.39
4981;BME280;2507;50.392;7.482;2024-02-23T06:03:44;98643.13;;;7.60;58.78
4981;BME280;2507;50.392;7.482;2024-02-23T06:06:10;98640.09;;;7.55;59.10
4981;BME280;2507;50.392;7.482;2024-02-23T06:08:35;98627.63;;;7.49;59.22
4981;BME280;2507;50.392;7.482;2024-02-23T06:11:01;98636.53;;;7.56;58.75
4981;BME280;2507;50.392;7.482;2024-02-23T06:13:26;98640.53;;;7.50;58.76
4981;BME280;2507;50.392;7.482;2024-02-23T06:15:52;98641.06;;;7.44;58.56
4981;BME280;2507;50.392;7.482;2024-02-23T06:18:17;98631.59;;;7.53;58.78
4981;BME280;2507;50.392;7.482;2024-02-23T06:20:42;98630.09;;;7.50;58.66
4981;BME280;2507;50.392;7.482;2024-02-23T06:23:07;98627.59;;;7.58;58.10
4981;BME280;2507;50.392;7.482;2024-02-23T06:25:33;98633.22;;;7.73;58.20
4981;BME280;2507;50.392;7.482;2024-02-23T06:27:58;98634.44;;;7.78;57.62
4981;BME280;2507;50.392;7.482;2024-02-23T06:30:23;98630.44;;;7.84;57.56
4981;BME280;2507;50.392;7.482;2024-02-23T06:32:48;98620.97;;;7.83;57.29
4981;BME280;2507;50.392;7.482;2024-02-23T06:35:14;98623.44;;;7.84;57.65
4981;BME280;2507;50.392;7.482;2024-02-23T06:37:39;98625.91;;;7.86;57.35
4981;BME280;2507;50.392;7.482;2024-02-23T06:40:05;98630.88;;;7.89;57.13
4981;BME280;2507;50.392;7.482;2024-02-23T06:42:32;98630.44;;;7.93;57.26
4981;BME280;2507;50.392;7.482;2024-02-23T06:44:57;98627.38;;;8.07;57.03
4981;BME280;2507;50.392;7.482;2024-02-23T06:47:22;98623.66;;;8.10;56.13
4981;BME280;2507;50.392;7.482;2024-02-23T06:49:48;98619.50;;;8.17;56.10
4981;BME280;2507;50.392;7.482;2024-02-23T06:52:13;98625.56;;;8.17;56.25
4981;BME280;2507;50.392;7.482;2024-02-23T06:54:39;98639.88;;;8.13;56.49
4981;BME280;2507;50.392;7.482;2024-02-23T06:57:04;98642.94;;;8.09;56.45
4981;BME280;2507;50.392;7.482;2024-02-23T06:59:29;98642.34;;;8.15;56.15
4981;BME280;2507;50.392;7.482;2024-02-23T07:01:54;98637.50;;;8.39;55.65
4981;BME280;2507;50.392;7.482;2024-02-23T07:04:20;98651.47;;;8.48;55.25
4981;BME280;2507;50.392;7.482;2024-02-23T07:06:46;98650.09;;;8.44;55.50
4981;BME280;2507;50.392;7.482;2024-02-23T07:09:11;98653.00;;;8.50;55.32
4981;BME280;2507;50.392;7.482;2024-02-23T07:11:37;98657.25;;;8.51;54.91
4981;BME280;2507;50.392;7.482;2024-02-23T07:14:03;98667.84;;;8.50;54.93
4981;BME280;2507;50.392;7.482;2024-02-23T07:16:28;98665.72;;;8.63;55.46
4981;BME280;2507;50.392;7.482;2024-02-23T07:18:54;98674.63;;;8.70;54.39
4981;BME280;2507;50.392;7.482;2024-02-23T07:21:20;98673.09;;;8.77;54.47
4981;BME280;2507;50.392;7.482;2024-02-23T07:23:45;98685.63;;;8.73;54.70
4981;BME280;2507;50.392;7.482;2024-02-23T07:26:10;98689.78;;;8.66;54.47
4981;BME280;2507;50.392;7.482;2024-02-23T07:28:36;98696.78;;;8.75;54.73
4981;BME280;2507;50.392;7.482;2024-02-23T07:31:01;98700.78;;;8.70;54.74
4981;BME280;2507;50.392;7.482;2024-02-23T07:33:26;98708.44;;;8.81;54.37
4981;BME280;2507;50.392;7.482;2024-02-23T07:35:51;98713.66;;;8.90;53.89
4981;BME280;2507;50.392;7.482;2024-02-23T07:38:17;98712.81;;;8.90;53.85
4981;BME280;2507;50.392;7.482;2024-02-23T07:40:45;98708.69;;;8.87;53.94
4981;BME280;2507;50.392;7.482;2024-02-23T07:43:10;98718.16;;;8.98;53.67
4981;BME280;2507;50.392;7.482;2024-02-23T07:45:36;98709.84;;;9.02;53.59
4981;BME280;2507;50.392;7.482;2024-02-23T07:48:02;98711.75;;;9.10;53.63
4981;BME280;2507;50.392;7.482;2024-02-23T07:50:28;98717.13;;;9.08;53.31
4981;BME280;2507;50.392;7.482;2024-02-23T07:52:53;98717.22;;;9.16;53.32
4981;BME280;2507;50.392;7.482;2024-02-23T07:55:18;98723.44;;;9.15;52.66
4981;BME280;2507;50.392;7.482;2024-02-23T07:57:43;98722.94;;;9.02;53.21
4981;BME280;2507;50.392;7.482;2024-02-23T08:00:09;98712.28;;;8.86;52.50
4981;BME280;2507;50.392;7.482;2024-02-23T08:02:35;98710.59;;;8.95;53.00
4981;BME280;2507;50.392;7.482;2024-02-23T08:05:00;98718.09;;;9.07;52.87
4981;BME280;2507;50.392;7.482;2024-02-23T08:07:26;98726.91;;;9.06;53.24
4981;BME280;2507;50.392;7.482;2024-02-23T08:09:53;98726.63;;;9.09;53.14
4981;BME280;2507;50.392;7.482;2024-02-23T08:12:18;98741.06;;;9.13;53.28
4981;BME280;2507;50.392;7.482;2024-02-23T08:14:43;98735.16;;;9.11;53.10
4981;BME280;2507;50.392;7.482;2024-02-23T08:17:11;98737.63;;;9.13;53.02
4981;BME280;2507;50.392;7.482;2024-02-23T08:19:36;98735.94;;;9.21;53.00
4981;BME280;2507;50.392;7.482;2024-02-23T08:22:01;98739.53;;;9.11;52.43
4981;BME280;2507;50.392;7.482;2024-02-23T08:24:26;98738.91;;;9.09;52.69
4981;BME280;2507;50.392;7.482;2024-02-23T08:26:52;98748.63;;;9.16;52.58
4981;BME280;2507;50.392;7.482;2024-02-23T08:29:17;98747.13;;;9.14;52.87
4981;BME280;2507;50.392;7.482;2024-02-23T08:31:43;98737.03;;;9.19;52.65
4981;BME280;2507;50.392;7.482;2024-02-23T08:34:08;98746.81;;;9.17;52.42
4981;BME280;2507;50.392;7.482;2024-02-23T08:36:33;98748.41;;;9.27;52.34
4981;BME280;2507;50.392;7.482;2024-02-23T08:38:59;98741.03;;;9.41;51.34
4981;BME280;2507;50.392;7.482;2024-02-23T08:41:24;98751.44;;;9.33;51.53
4981;BME280;2507;50.392;7.482;2024-02-23T08:43:49;98741.88;;;9.41;51.83
4981;BME280;2507;50.392;7.482;2024-02-23T08:46:15;98741.56;;;9.26;51.78
4981;BME280;2507;50.392;7.482;2024-02-23T08:48:40;98746.81;;;9.17;52.27
4981;BME280;2507;50.392;7.482;2024-02-23T08:51:05;98744.59;;;9.22;51.56
4981;BME280;2507;50.392;7.482;2024-02-23T08:53:30;98750.56;;;9.42;51.92
4981;BME280;2507;50.392;7.482;2024-02-23T08:55:56;98746.38;;;9.49;52.16
4981;BME280;2507;50.392;7.482;2024-02-23T08:58:21;98754.31;;;9.57;53.05
4981;BME280;2507;50.392;7.482;2024-02-23T09:00:46;98751.53;;;9.58;53.15
4981;BME280;2507;50.392;7.482;2024-02-23T09:03:12;98751.94;;;9.63;53.38
4981;BME280;2507;50.392;7.482;2024-02-23T09:05:37;98746.75;;;9.71;53.57
4981;BME280;2507;50.392;7.482;2024-02-23T09:08:02;98744.44;;;9.86;53.12
4981;BME280;2507;50.392;7.482;2024-02-23T09:10:27;98748.72;;;10.04;52.26
4981;BME280;2507;50.392;7.482;2024-02-23T09:12:53;98745.69;;;10.09;51.49
4981;BME280;2507;50.392;7.482;2024-02-23T09:15:18;98738.19;;;10.14;51.41
4981;BME280;2507;50.392;7.482;2024-02-23T09:17:43;98732.94;;;10.14;50.74
4981;BME280;2507;50.392;7.482;2024-02-23T09:20:09;98726.47;;;10.26;51.40
4981;BME280;2507;50.392;7.482;2024-02-23T09:22:35;98726.88;;;10.13;50.86
4981;BME280;2507;50.392;7.482;2024-02-23T09:25:01;98718.78;;;10.07;51.60
4981;BME280;2507;50.392;7.482;2024-02-23T09:27:27;98722.34;;;10.06;51.07
4981;BME280;2507;50.392;7.482;2024-02-23T09:29:53;98725.09;;;10.14;51.07
4981;BME280;2507;50.392;7.482;2024-02-23T09:32:18;98724.09;;;10.33;50.67
4981;BME280;2507;50.392;7.482;2024-02-23T09:34:43;98724.09;;;10.33;50.26
4981;BME280;2507;50.392;7.482;2024-02-23T09:37:09;98730.34;;;10.40;50.19
4981;BME280;2507;50.392;7.482;2024-02-23T09:39:35;98723.09;;;10.34;50.14
4981;BME280;2507;50.392;7.482;2024-02-23T09:42:01;98726.78;;;10.23;50.43
4981;BME280;2507;50.392;7.482;2024-02-23T09:44:32;98733.66;;;10.24;50.93
4981;BME280;2507;50.392;7.482;2024-02-23T09:47:03;98736.91;;;10.44;50.17
4981;BME280;2507;50.392;7.482;2024-02-23T09:49:40;98733.50;;;10.43;50.18
4981;BME280;2507;50.392;7.482;2024-02-23T09:52:09;98742.75;;;10.55;50.05
4981;BME280;2507;50.392;7.482;2024-02-23T09:54:37;98740.47;;;10.60;50.06
4981;BME280;2507;50.392;7.482;2024-02-23T09:57:07;98729.16;;;10.85;49.63
4981;BME280;2507;50.392;7.482;2024-02-23T09:59:36;98738.13;;;11.16;49.50
4981;BME280;2507;50.392;7.482;2024-02-23T10:02:07;98732.25;;;11.22;49.06
4981;BME280;2507;50.392;7.482;2024-02-23T10:04:34;98723.63;;;11.38;49.10
4981;BME280;2507;50.392;7.482;2024-02-23T10:06:59;98719.50;;;11.44;47.40
4981;BME280;2507;50.392;7.482;2024-02-23T10:09:25;98725.06;;;11.24;48.45
4981;BME280;2507;50.392;7.482;2024-02-23T10:11:53;98732.31;;;11.30;48.10
4981;BME280;2507;50.392;7.482;2024-02-23T10:14:18;98722.13;;;11.44;47.50
4981;BME280;2507;50.392;7.482;2024-02-23T10:16:44;98726.25;;;11.38;47.86
4981;BME280;2507;50.392;7.482;2024-02-23T10:19:09;98726.38;;;11.28;47.74
4981;BME280;2507;50.392;7.482;2024-02-23T10:21:34;98726.59;;;11.51;46.81
4981;BME280;2507;50.392;7.482;2024-02-23T10:24:00;98725.13;;;11.49;47.02
4981;BME280;2507;50.392;7.482;2024-02-23T10:26:26;98738.91;;;11.43;47.47
4981;BME280;2507;50.392;7.482;2024-02-23T10:28:52;98741.84;;;11.48;47.05
4981;BME280;2507;50.392;7.482;2024-02-23T10:31:17;98736.31;;;11.59;47.24
4981;BME280;2507;50.392;7.482;2024-02-23T10:33:44;98738.31;;;11.73;47.55
4981;BME280;2507;50.392;7.482;2024-02-23T10:36:11;98746.06;;;11.74;47.49
4981;BME280;2507;50.392;7.482;2024-02-23T10:38:38;98737.72;;;11.87;46.59
4981;BME280;2507;50.392;7.482;2024-02-23T10:41:09;98740.16;;;11.96;46.84
4981;BME280;2507;50.392;7.482;2024-02-23T10:43:41;98742.34;;;12.09;47.03
4981;BME280;2507;50.392;7.482;2024-02-23T10:46:09;98754.16;;;12.37;46.48
4981;BME280;2507;50.392;7.482;2024-02-23T10:48:41;98750.69;;;12.37;45.73
4981;BME280;2507;50.392;7.482;2024-02-23T10:51:07;98751.81;;;12.58;46.24
4981;BME280;2507;50.392;7.482;2024-02-23T10:53:34;98744.44;;;12.62;46.47
4981;BME280;2507;50.392;7.482;2024-02-23T10:56:00;98748.41;;;12.09;47.19
4981;BME280;2507;50.392;7.482;2024-02-23T10:58:26;98751.34;;;11.74;48.32
4981;BME280;2507;50.392;7.482;2024-02-23T11:00:53;98738.84;;;11.76;48.20
4981;BME280;2507;50.392;7.482;2024-02-23T11:03:23;98738.50;;;11.71;48.45
4981;BME280;2507;50.392;7.482;2024-02-23T11:05:48;98733.59;;;11.84;48.15
4981;BME280;2507;50.392;7.482;2024-02-23T11:08:17;98741.00;;;12.13;47.61
4981;BME280;2507;50.392;7.482;2024-02-23T11:10:43;98729.66;;;12.37;46.34
4981;BME280;2507;50.392;7.482;2024-02-23T11:13:13;98732.31;;;12.28;45.95
4981;BME280;2507;50.392;7.482;2024-02-23T11:15:42;98735.59;;;12.30;46.09
4981;BME280;2507;50.392;7.482;2024-02-23T11:18:28;98717.63;;;12.42;45.75
4981;BME280;2507;50.392;7.482;2024-02-23T11:20:59;98725.19;;;12.53;46.04
4981;BME280;2507;50.392;7.482;2024-02-23T11:23:24;98723.56;;;12.52;45.37
4981;BME280;2507;50.392;7.482;2024-02-23T11:28:27;98724.22;;;12.54;45.09
4981;BME280;2507;50.392;7.482;2024-02-23T11:30:53;98717.63;;;12.42;45.17
4981;BME280;2507;50.392;7.482;2024-02-23T11:33:34;98724.66;;;12.74;44.81
4981;BME280;2507;50.392;7.482;2024-02-23T11:36:09;98721.16;;;12.89;44.46
4981;BME280;2507;50.392;7.482;2024-02-23T11:38:34;98721.13;;;13.05;44.27
4981;BME280;2507;50.392;7.482;2024-02-23T11:41:00;98721.16;;;12.89;44.20
4981;BME280;2507;50.392;7.482;2024-02-23T11:43:27;98726.09;;;12.92;44.28
4981;BME280;2507;50.392;7.482;2024-02-23T11:45:53;98738.31;;;12.77;44.57
4981;BME280;2507;50.392;7.482;2024-02-23T11:48:18;98731.72;;;12.73;44.70
4981;BME280;2507;50.392;7.482;2024-02-23T11:50:43;98745.84;;;12.80;44.86
4981;BME280;2507;50.392;7.482;2024-02-23T11:53:08;98730.41;;;12.85;45.40
4981;BME280;2507;50.392;7.482;2024-02-23T11:55:34;98727.78;;;12.85;45.31
4981;BME280;2507;50.392;7.482;2024-02-23T11:58:00;98718.97;;;13.01;45.14
4981;BME280;2507;50.392;7.482;2024-02-23T12:00:25;98726.38;;;13.13;44.80
4981;BME280;2507;50.392;7.482;2024-02-23T12:02:51;98738.25;;;12.93;45.07
4981;BME280;2507;50.392;7.482;2024-02-23T12:05:16;98722.03;;;12.74;45.31
4981;BME280;2507;50.392;7.482;2024-02-23T12:07:42;98724.66;;;12.66;45.81
4981;BME280;2507;50.392;7.482;2024-02-23T12:10:08;98725.50;;;12.66;45.89
4981;BME280;2507;50.392;7.482;2024-02-23T12:12:35;98727.16;;;12.59;46.45
4981;BME280;2507;50.392;7.482;2024-02-23T12:15:01;98727.13;;;12.83;46.25
4981;BME280;2507;50.392;7.482;2024-02-23T12:17:27;98703.16;;;13.17;45.68
4981;BME280;2507;50.392;7.482;2024-02-23T12:19:59;98706.78;;;13.47;44.27
4981;BME280;2507;50.392;7.482;2024-02-23T12:22:25;98691.41;;;13.81;43.53
4981;BME280;2507;50.392;7.482;2024-02-23T12:24:50;98692.47;;;13.72;43.79
4981;BME280;2507;50.392;7.482;2024-02-23T12:27:18;98701.81;;;13.52;42.85
4981;BME280;2507;50.392;7.482;2024-02-23T12:29:54;98697.97;;;13.85;43.77
4981;BME280;2507;50.392;7.482;2024-02-23T12:32:20;98693.38;;;13.79;42.71
4981;BME280;2507;50.392;7.482;2024-02-23T12:34:46;98695.28;;;13.70;42.72
4981;BME280;2507;50.392;7.482;2024-02-23T12:37:14;98689.75;;;14.02;41.92
4981;BME280;2507;50.392;7.482;2024-02-23T12:39:40;98697.75;;;13.94;41.99
4981;BME280;2507;50.392;7.482;2024-02-23T12:42:05;98698.72;;;13.93;42.04
4981;BME280;2507;50.392;7.482;2024-02-23T12:44:30;98697.16;;;13.62;42.46
4981;BME280;2507;50.392;7.482;2024-02-23T12:46:56;98700.66;;;13.77;42.22
4981;BME280;2507;50.392;7.482;2024-02-23T12:49:21;98699.94;;;13.60;42.18
4981;BME280;2507;50.392;7.482;2024-02-23T12:51:46;98690.84;;;13.71;41.89
4981;BME280;2507;50.392;7.482;2024-02-23T12:54:11;98702.94;;;13.57;41.72
4981;BME280;2507;50.392;7.482;2024-02-23T12:56:37;98702.44;;;13.62;41.75
4981;BME280;2507;50.392;7.482;2024-02-23T12:59:02;98711.13;;;13.31;42.21
4981;BME280;2507;50.392;7.482;2024-02-23T13:01:27;98718.09;;;13.24;42.54
4981;BME280;2507;50.392;7.482;2024-02-23T13:03:53;98722.88;;;13.29;42.66
4981;BME280;2507;50.392;7.482;2024-02-23T13:06:18;98719.81;;;13.01;44.61
4981;BME280;2507;50.392;7.482;2024-02-23T13:08:43;98740.94;;;12.69;45.80
4981;BME280;2507;50.392;7.482;2024-02-23T13:11:09;98735.91;;;12.27;47.65
4981;BME280;2507;50.392;7.482;2024-02-23T13:13:34;98731.47;;;12.04;49.54
4981;BME280;2507;50.392;7.482;2024-02-23T13:15:59;98739.03;;;12.07;50.34
4981;BME280;2507;50.392;7.482;2024-02-23T13:18:25;98732.13;;;12.22;49.52
4981;BME280;2507;50.392;7.482;2024-02-23T13:20:50;98735.91;;;12.27;50.14
4981;BME280;2507;50.392;7.482;2024-02-23T13:23:16;98755.81;;;12.30;51.43
4981;BME280;2507;50.392;7.482;2024-02-23T13:25:42;98749.91;;;12.36;51.24